sensor_id;sensor_type;location;lat;lon;timestamp;P1;durP1;ratioP1;P2;durP2;ratioP2
57443;SDS011;43289;52.962;6.196;2023-06-19T00:01:46;10.05;;;8.32;;
57443;SDS011;43289;52.962;6.196;2023-06-19T00:04:12;8.18;;;7.38;;
57443;SDS011;43289;52.962;6.196;2023-06-19T00:06:38;9.65;;;7.45;;
57443;SDS011;43289;52.962;6.196;2023-06-19T00:09:03;10.30;;;7.47;;
57443;SDS011;43289;52.962;6.196;2023-06-19T00:11:41;8.80;;;7.72;;
57443;SDS011;43289;52.962;6.196;2023-06-19T00:14:06;11.13;;;8.10;;
57443;SDS011;43289;52.962;6.196;2023-06-19T00:16:32;14.63;;;7.75;;
57443;SDS011;43289;52.962;6.196;2023-06-19T00:18:58;11.20;;;7.55;;
57443;SDS011;43289;52.962;6.196;2023-06-19T00:21:24;10.27;;;7.68;;
57443;SDS011;43289;52.962;6.196;2023-06-19T00:23:50;9.20;;;7.00;;
57443;SDS011;43289;52.962;6.196;2023-06-19T00:26:17;13.30;;;7.95;;
57443;SDS011;43289;52.962;6.196;2023-06-19T00:28:43;9.00;;;7.18;;
57443;SDS011;43289;52.962;6.196;2023-06-19T00:31:10;9.55;;;7.53;;
57443;SDS011;43289;52.962;6.196;2023-06-19T00:36:23;9.02;;;8.10;;
57443;SDS011;43289;52.962;6.196;2023-06-19T00:38:51;10.80;;;8.23;;
57443;SDS011;43289;52.962;6.196;2023-06-19T00:41:18;9.75;;;7.82;;
57443;SDS011;43289;52.962;6.196;2023-06-19T00:43:44;10.00;;;7.97;;
57443;SDS011;43289;52.962;6.196;2023-06-19T00:46:10;12.50;;;8.30;;
57443;SDS011;43289;52.962;6.196;2023-06-19T00:48:41;11.57;;;7.85;;
57443;SDS011;43289;52.962;6.196;2023-06-19T00:51:07;11.05;;;7.82;;
57443;SDS011;43289;52.962;6.196;2023-06-19T00:53:33;10.85;;;7.80;;
57443;SDS011;43289;52.962;6.196;2023-06-19T00:55:59;9.05;;;7.28;;
57443;SDS011;43289;52.962;6.196;2023-06-19T00:58:25;15.73;;;7.35;;
57443;SDS011;43289;52.962;6.196;2023-06-19T01:00:51;8.32;;;7.40;;
57443;SDS011;43289;52.962;6.196;2023-06-19T01:03:17;11.82;;;7.35;;
57443;SDS011;43289;52.962;6.196;2023-06-19T01:05:43;12.68;;;8.30;;
57443;SDS011;43289;52.962;6.196;2023-06-19T01:11:21;10.70;;;7.47;;
57443;SDS011;43289;52.962;6.196;2023-06-19T01:13:54;11.27;;;7.72;;
57443;SDS011;43289;52.962;6.196;2023-06-19T01:16:24;8.95;;;7.65;;
57443;SDS011;43289;52.962;6.196;2023-06-19T01:18:51;15.38;;;7.07;;
57443;SDS011;43289;52.962;6.196;2023-06-19T01:21:18;9.63;;;7.90;;
57443;SDS011;43289;52.962;6.196;2023-06-19T01:23:44;9.90;;;7.90;;
57443;SDS011;43289;52.962;6.196;2023-06-19T01:26:11;10.07;;;7.10;;
57443;SDS011;43289;52.962;6.196;2023-06-19T01:28:37;9.07;;;7.22;;
57443;SDS011;43289;52.962;6.196;2023-06-19T01:31:09;10.15;;;7.20;;
57443;SDS011;43289;52.962;6.196;2023-06-19T01:33:45;10.18;;;7.40;;
57443;SDS011;43289;52.962;6.196;2023-06-19T01:36:14;8.25;;;7.28;;
57443;SDS011;43289;52.962;6.196;2023-06-19T01:38:42;8.82;;;7.13;;
57443;SDS011;43289;52.962;6.196;2023-06-19T01:41:10;10.60;;;7.50;;
57443;SDS011;43289;52.962;6.196;2023-06-19T01:43:36;11.80;;;7.93;;
57443;SDS011;43289;52.962;6.196;2023-06-19T01:46:02;16.13;;;8.48;;
57443;SDS011;43289;52.962;6.196;2023-06-19T01:48:29;12.07;;;7.63;;
57443;SDS011;43289;52.962;6.196;2023-06-19T01:50:54;8.80;;;7.07;;
57443;SDS011;43289;52.962;6.196;2023-06-19T01:53:20;9.60;;;7.32;;
57443;SDS011;43289;52.962;6.196;2023-06-19T01:55:45;8.45;;;7.28;;
57443;SDS011;43289;52.962;6.196;2023-06-19T01:58:11;10.18;;;7.55;;
57443;SDS011;43289;52.962;6.196;2023-06-19T02:00:36;8.43;;;7.38;;
57443;SDS011;43289;52.962;6.196;2023-06-19T02:03:02;11.23;;;7.85;;
57443;SDS011;43289;52.962;6.196;2023-06-19T02:05:29;10.60;;;6.78;;
57443;SDS011;43289;52.962;6.196;2023-06-19T02:07:55;9.35;;;7.00;;
57443;SDS011;43289;52.962;6.196;2023-06-19T02:10:21;8.60;;;7.13;;
57443;SDS011;43289;52.962;6.196;2023-06-19T02:12:46;9.93;;;6.55;;
57443;SDS011;43289;52.962;6.196;2023-06-19T02:15:12;10.98;;;8.50;;
57443;SDS011;43289;52.962;6.196;2023-06-19T02:17:38;9.32;;;7.40;;
57443;SDS011;43289;52.962;6.196;2023-06-19T02:20:04;8.43;;;6.95;;
57443;SDS011;43289;52.962;6.196;2023-06-19T02:22:34;10.80;;;7.70;;
57443;SDS011;43289;52.962;6.196;2023-06-19T02:24:59;8.63;;;6.97;;
57443;SDS011;43289;52.962;6.196;2023-06-19T02:27:25;8.90;;;7.10;;
57443;SDS011;43289;52.962;6.196;2023-06-19T02:29:50;8.57;;;7.28;;
57443;SDS011;43289;52.962;6.196;2023-06-19T02:32:16;9.32;;;7.30;;
57443;SDS011;43289;52.962;6.196;2023-06-19T02:34:41;8.65;;;7.18;;
57443;SDS011;43289;52.962;6.196;2023-06-19T02:37:07;10.65;;;7.82;;
57443;SDS011;43289;52.962;6.196;2023-06-19T02:39:33;12.00;;;8.57;;
57443;SDS011;43289;52.962;6.196;2023-06-19T02:41:58;11.70;;;7.75;;
57443;SDS011;43289;52.962;6.196;2023-06-19T02:44:24;9.20;;;7.22;;
57443;SDS011;43289;52.962;6.196;2023-06-19T02:46:50;8.57;;;7.55;;
57443;SDS011;43289;52.962;6.196;2023-06-19T02:49:16;8.30;;;6.97;;
57443;SDS011;43289;52.962;6.196;2023-06-19T02:51:41;10.50;;;7.32;;
57443;SDS011;43289;52.962;6.196;2023-06-19T02:54:07;8.40;;;7.30;;
57443;SDS011;43289;52.962;6.196;2023-06-19T02:56:32;10.20;;;7.07;;
57443;SDS011;43289;52.962;6.196;2023-06-19T02:58:58;8.40;;;6.75;;
57443;SDS011;43289;52.962;6.196;2023-06-19T03:01:24;8.45;;;7.13;;
57443;SDS011;43289;52.962;6.196;2023-06-19T03:03:49;8.63;;;7.03;;
57443;SDS011;43289;52.962;6.196;2023-06-19T03:06:17;8.93;;;7.32;;
57443;SDS011;43289;52.962;6.196;2023-06-19T03:08:43;9.98;;;6.70;;
57443;SDS011;43289;52.962;6.196;2023-06-19T03:11:09;8.35;;;7.30;;
57443;SDS011;43289;52.962;6.196;2023-06-19T03:13:47;9.02;;;7.50;;
57443;SDS011;43289;52.962;6.196;2023-06-19T03:16:13;8.23;;;7.13;;
57443;SDS011;43289;52.962;6.196;2023-06-19T03:18:42;10.52;;;6.47;;
57443;SDS011;43289;52.962;6.196;2023-06-19T03:21:10;9.98;;;7.93;;
57443;SDS011;43289;52.962;6.196;2023-06-19T03:23:37;7.68;;;6.50;;
57443;SDS011;43289;52.962;6.196;2023-06-19T03:26:02;8.80;;;7.05;;
57443;SDS011;43289;52.962;6.196;2023-06-19T03:28:28;9.45;;;7.28;;
57443;SDS011;43289;52.962;6.196;2023-06-19T03:30:54;8.65;;;7.10;;
57443;SDS011;43289;52.962;6.196;2023-06-19T03:33:19;10.38;;;7.50;;
57443;SDS011;43289;52.962;6.196;2023-06-19T03:35:45;10.38;;;7.65;;
57443;SDS011;43289;52.962;6.196;2023-06-19T03:38:11;9.93;;;6.97;;
57443;SDS011;43289;52.962;6.196;2023-06-19T03:40:36;10.40;;;7.82;;
57443;SDS011;43289;52.962;6.196;2023-06-19T03:43:02;9.02;;;6.15;;
57443;SDS011;43289;52.962;6.196;2023-06-19T03:45:27;9.63;;;7.35;;
57443;SDS011;43289;52.962;6.196;2023-06-19T03:47:53;9.07;;;6.22;;
57443;SDS011;43289;52.962;6.196;2023-06-19T03:50:18;9.95;;;7.18;;
57443;SDS011;43289;52.962;6.196;2023-06-19T03:52:44;10.80;;;7.25;;
57443;SDS011;43289;52.962;6.196;2023-06-19T03:55:10;8.48;;;5.80;;
57443;SDS011;43289;52.962;6.196;2023-06-19T03:57:36;8.05;;;5.55;;
57443;SDS011;43289;52.962;6.196;2023-06-19T04:00:01;8.60;;;5.80;;
57443;SDS011;43289;52.962;6.196;2023-06-19T04:02:32;7.45;;;5.18;;
57443;SDS011;43289;52.962;6.196;2023-06-19T04:04:58;7.43;;;4.63;;
57443;SDS011;43289;52.962;6.196;2023-06-19T04:07:24;9.38;;;3.85;;
57443;SDS011;43289;52.962;6.196;2023-06-19T04:09:49;5.93;;;3.33;;
57443;SDS011;43289;52.962;6.196;2023-06-19T04:12:15;5.38;;;3.58;;
57443;SDS011;43289;52.962;6.196;2023-06-19T04:14:40;5.53;;;3.78;;
57443;SDS011;43289;52.962;6.196;2023-06-19T04:17:06;7.78;;;4.05;;
57443;SDS011;43289;52.962;6.196;2023-06-19T04:19:31;6.60;;;3.90;;
57443;SDS011;43289;52.962;6.196;2023-06-19T04:21:57;5.80;;;3.90;;
57443;SDS011;43289;52.962;6.196;2023-06-19T04:24:22;10.57;;;4.25;;
57443;SDS011;43289;52.962;6.196;2023-06-19T04:26:48;5.45;;;3.90;;
57443;SDS011;43289;52.962;6.196;2023-06-19T04:29:14;7.18;;;3.83;;
57443;SDS011;43289;52.962;6.196;2023-06-19T04:31:43;6.90;;;4.57;;
57443;SDS011;43289;52.962;6.196;2023-06-19T04:34:12;7.00;;;4.50;;
57443;SDS011;43289;52.962;6.196;2023-06-19T04:36:39;5.28;;;3.88;;
57443;SDS011;43289;52.962;6.196;2023-06-19T04:39:06;6.80;;;4.13;;
57443;SDS011;43289;52.962;6.196;2023-06-19T04:41:31;9.05;;;4.60;;
57443;SDS011;43289;52.962;6.196;2023-06-19T04:43:57;7.03;;;4.28;;
57443;SDS011;43289;52.962;6.196;2023-06-19T04:46:23;5.70;;;4.20;;
57443;SDS011;43289;52.962;6.196;2023-06-19T04:48:48;5.45;;;4.45;;
57443;SDS011;43289;52.962;6.196;2023-06-19T04:51:17;6.65;;;4.32;;
57443;SDS011;43289;52.962;6.196;2023-06-19T04:53:46;6.78;;;4.88;;
57443;SDS011;43289;52.962;6.196;2023-06-19T04:56:12;5.68;;;4.88;;
57443;SDS011;43289;52.962;6.196;2023-06-19T04:58:38;5.68;;;4.38;;
57443;SDS011;43289;52.962;6.196;2023-06-19T05:01:10;6.35;;;4.60;;
57443;SDS011;43289;52.962;6.196;2023-06-19T05:03:37;6.75;;;4.35;;
57443;SDS011;43289;52.962;6.196;2023-06-19T05:06:03;8.25;;;4.68;;
57443;SDS011;43289;52.962;6.196;2023-06-19T05:08:28;6.25;;;4.70;;
57443;SDS011;43289;52.962;6.196;2023-06-19T05:10:54;5.80;;;4.72;;
57443;SDS011;43289;52.962;6.196;2023-06-19T05:13:20;6.88;;;4.57;;
57443;SDS011;43289;52.962;6.196;2023-06-19T05:15:45;5.50;;;4.18;;
57443;SDS011;43289;52.962;6.196;2023-06-19T05:18:11;6.07;;;4.80;;
57443;SDS011;43289;52.962;6.196;2023-06-19T05:20:36;6.00;;;4.85;;
57443;SDS011;43289;52.962;6.196;2023-06-19T05:23:02;8.02;;;4.95;;
57443;SDS011;43289;52.962;6.196;2023-06-19T05:25:27;8.50;;;5.57;;
57443;SDS011;43289;52.962;6.196;2023-06-19T05:27:53;6.97;;;5.80;;
57443;SDS011;43289;52.962;6.196;2023-06-19T05:30:18;7.40;;;5.05;;
57443;SDS011;43289;52.962;6.196;2023-06-19T05:32:44;9.57;;;6.13;;
57443;SDS011;43289;52.962;6.196;2023-06-19T05:35:09;8.65;;;6.00;;
57443;SDS011;43289;52.962;6.196;2023-06-19T05:37:35;10.23;;;6.55;;
57443;SDS011;43289;52.962;6.196;2023-06-19T05:40:01;12.73;;;7.80;;
57443;SDS011;43289;52.962;6.196;2023-06-19T05:42:26;17.73;;;8.32;;
57443;SDS011;43289;52.962;6.196;2023-06-19T05:44:52;10.02;;;8.18;;
57443;SDS011;43289;52.962;6.196;2023-06-19T05:47:17;9.57;;;7.45;;
57443;SDS011;43289;52.962;6.196;2023-06-19T05:49:45;9.98;;;6.95;;
57443;SDS011;43289;52.962;6.196;2023-06-19T05:52:11;12.48;;;8.98;;
57443;SDS011;43289;52.962;6.196;2023-06-19T05:54:37;9.60;;;7.88;;
57443;SDS011;43289;52.962;6.196;2023-06-19T05:57:03;10.07;;;7.78;;
57443;SDS011;43289;52.962;6.196;2023-06-19T05:59:28;9.40;;;7.75;;
57443;SDS011;43289;52.962;6.196;2023-06-19T06:01:54;11.85;;;9.13;;
57443;SDS011;43289;52.962;6.196;2023-06-19T06:04:20;9.00;;;7.30;;
57443;SDS011;43289;52.962;6.196;2023-06-19T06:06:47;8.85;;;6.95;;
57443;SDS011;43289;52.962;6.196;2023-06-19T06:09:12;9.02;;;5.95;;
57443;SDS011;43289;52.962;6.196;2023-06-19T06:11:39;7.03;;;5.78;;
57443;SDS011;43289;52.962;6.196;2023-06-19T06:14:05;9.32;;;5.15;;
57443;SDS011;43289;52.962;6.196;2023-06-19T06:16:30;6.45;;;4.28;;
57443;SDS011;43289;52.962;6.196;2023-06-19T06:18:56;10.00;;;5.57;;
57443;SDS011;43289;52.962;6.196;2023-06-19T06:21:22;5.82;;;5.07;;
57443;SDS011;43289;52.962;6.196;2023-06-19T06:23:47;7.20;;;5.90;;
57443;SDS011;43289;52.962;6.196;2023-06-19T06:26:13;8.63;;;6.47;;
57443;SDS011;43289;52.962;6.196;2023-06-19T06:28:39;7.40;;;6.60;;
57443;SDS011;43289;52.962;6.196;2023-06-19T06:31:05;9.25;;;6.43;;
57443;SDS011;43289;52.962;6.196;2023-06-19T06:33:31;8.43;;;7.47;;
57443;SDS011;43289;52.962;6.196;2023-06-19T06:35:57;8.18;;;7.25;;
57443;SDS011;43289;52.962;6.196;2023-06-19T06:38:23;9.13;;;7.85;;
57443;SDS011;43289;52.962;6.196;2023-06-19T06:40:48;10.77;;;8.93;;
57443;SDS011;43289;52.962;6.196;2023-06-19T06:43:14;10.32;;;9.23;;
57443;SDS011;43289;52.962;6.196;2023-06-19T06:45:40;12.23;;;10.95;;
57443;SDS011;43289;52.962;6.196;2023-06-19T06:48:07;13.55;;;11.13;;
57443;SDS011;43289;52.962;6.196;2023-06-19T06:50:33;17.45;;;13.30;;
57443;SDS011;43289;52.962;6.196;2023-06-19T06:52:59;17.33;;;12.23;;
57443;SDS011;43289;52.962;6.196;2023-06-19T06:55:25;14.80;;;12.02;;
57443;SDS011;43289;52.962;6.196;2023-06-19T06:57:51;13.75;;;11.48;;
57443;SDS011;43289;52.962;6.196;2023-06-19T07:00:17;16.08;;;14.02;;
57443;SDS011;43289;52.962;6.196;2023-06-19T07:02:43;18.30;;;14.25;;
57443;SDS011;43289;52.962;6.196;2023-06-19T07:05:09;15.32;;;13.73;;
57443;SDS011;43289;52.962;6.196;2023-06-19T07:07:35;16.25;;;13.98;;
57443;SDS011;43289;52.962;6.196;2023-06-19T07:10:01;17.35;;;14.32;;
57443;SDS011;43289;52.962;6.196;2023-06-19T07:12:27;16.73;;;12.43;;
57443;SDS011;43289;52.962;6.196;2023-06-19T07:14:53;16.45;;;13.65;;
57443;SDS011;43289;52.962;6.196;2023-06-19T07:17:19;17.67;;;14.40;;
57443;SDS011;43289;52.962;6.196;2023-06-19T07:19:45;19.33;;;13.73;;
57443;SDS011;43289;52.962;6.196;2023-06-19T07:22:10;18.17;;;13.57;;
57443;SDS011;43289;52.962;6.196;2023-06-19T07:24:36;19.55;;;14.18;;
57443;SDS011;43289;52.962;6.196;2023-06-19T07:27:01;16.75;;;13.35;;
57443;SDS011;43289;52.962;6.196;2023-06-19T07:29:27;15.32;;;13.07;;
57443;SDS011;43289;52.962;6.196;2023-06-19T07:31:53;16.60;;;12.57;;
57443;SDS011;43289;52.962;6.196;2023-06-19T07:34:18;17.23;;;14.20;;
57443;SDS011;43289;52.962;6.196;2023-06-19T07:36:44;18.77;;;13.57;;
57443;SDS011;43289;52.962;6.196;2023-06-19T07:39:10;17.70;;;12.35;;
57443;SDS011;43289;52.962;6.196;2023-06-19T07:41:36;14.95;;;11.52;;
57443;SDS011;43289;52.962;6.196;2023-06-19T07:44:18;13.05;;;10.52;;
57443;SDS011;43289;52.962;6.196;2023-06-19T07:46:45;11.90;;;10.25;;
57443;SDS011;43289;52.962;6.196;2023-06-19T07:49:11;14.02;;;10.77;;
57443;SDS011;43289;52.962;6.196;2023-06-19T07:51:37;12.45;;;10.13;;
57443;SDS011;43289;52.962;6.196;2023-06-19T07:54:02;11.50;;;10.30;;
57443;SDS011;43289;52.962;6.196;2023-06-19T07:56:28;12.20;;;10.70;;
57443;SDS011;43289;52.962;6.196;2023-06-19T07:58:54;11.85;;;9.90;;
57443;SDS011;43289;52.962;6.196;2023-06-19T08:01:19;11.07;;;8.82;;
57443;SDS011;43289;52.962;6.196;2023-06-19T08:03:45;11.88;;;9.93;;
57443;SDS011;43289;52.962;6.196;2023-06-19T08:06:11;13.25;;;8.57;;
57443;SDS011;43289;52.962;6.196;2023-06-19T08:08:36;9.55;;;8.50;;
57443;SDS011;43289;52.962;6.196;2023-06-19T08:11:02;11.48;;;9.32;;
57443;SDS011;43289;52.962;6.196;2023-06-19T08:13:28;9.63;;;8.27;;
57443;SDS011;43289;52.962;6.196;2023-06-19T08:15:53;11.65;;;8.45;;
57443;SDS011;43289;52.962;6.196;2023-06-19T08:18:19;9.85;;;7.35;;
57443;SDS011;43289;52.962;6.196;2023-06-19T08:20:44;10.50;;;7.30;;
57443;SDS011;43289;52.962;6.196;2023-06-19T08:23:10;9.48;;;5.72;;
57443;SDS011;43289;52.962;6.196;2023-06-19T08:25:36;8.20;;;4.78;;
57443;SDS011;43289;52.962;6.196;2023-06-19T08:28:01;6.22;;;4.50;;
57443;SDS011;43289;52.962;6.196;2023-06-19T08:30:27;8.55;;;4.70;;
57443;SDS011;43289;52.962;6.196;2023-06-19T08:32:52;6.32;;;4.70;;
57443;SDS011;43289;52.962;6.196;2023-06-19T08:35:18;6.93;;;5.00;;
57443;SDS011;43289;52.962;6.196;2023-06-19T08:37:43;7.45;;;4.50;;
57443;SDS011;43289;52.962;6.196;2023-06-19T08:40:09;7.22;;;4.88;;
57443;SDS011;43289;52.962;6.196;2023-06-19T08:42:37;8.93;;;5.10;;
57443;SDS011;43289;52.962;6.196;2023-06-19T08:45:04;7.32;;;5.75;;
57443;SDS011;43289;52.962;6.196;2023-06-19T08:47:34;10.07;;;6.50;;
57443;SDS011;43289;52.962;6.196;2023-06-19T08:50:00;6.95;;;5.25;;
57443;SDS011;43289;52.962;6.196;2023-06-19T08:52:25;8.77;;;5.82;;
57443;SDS011;43289;52.962;6.196;2023-06-19T08:54:51;11.10;;;6.00;;
57443;SDS011;43289;52.962;6.196;2023-06-19T08:57:17;11.93;;;6.65;;
57443;SDS011;43289;52.962;6.196;2023-06-19T08:59:50;8.57;;;6.72;;
57443;SDS011;43289;52.962;6.196;2023-06-19T09:02:16;14.88;;;6.88;;
57443;SDS011;43289;52.962;6.196;2023-06-19T09:04:42;11.48;;;7.90;;
57443;SDS011;43289;52.962;6.196;2023-06-19T09:07:08;12.75;;;8.10;;
57443;SDS011;43289;52.962;6.196;2023-06-19T09:09:52;11.40;;;8.05;;
57443;SDS011;43289;52.962;6.196;2023-06-19T09:12:18;11.10;;;8.73;;
57443;SDS011;43289;52.962;6.196;2023-06-19T09:14:44;11.48;;;8.43;;
57443;SDS011;43289;52.962;6.196;2023-06-19T09:17:11;12.48;;;9.07;;
57443;SDS011;43289;52.962;6.196;2023-06-19T09:19:38;12.25;;;10.45;;
57443;SDS011;43289;52.962;6.196;2023-06-19T09:22:05;11.30;;;9.02;;
57443;SDS011;43289;52.962;6.196;2023-06-19T09:27:05;12.40;;;9.63;;
57443;SDS011;43289;52.962;6.196;2023-06-19T09:29:31;13.07;;;11.77;;
57443;SDS011;43289;52.962;6.196;2023-06-19T09:31:57;14.63;;;11.27;;
57443;SDS011;43289;52.962;6.196;2023-06-19T09:34:24;15.48;;;11.10;;
57443;SDS011;43289;52.962;6.196;2023-06-19T09:36:50;16.83;;;11.38;;
57443;SDS011;43289;52.962;6.196;2023-06-19T09:39:16;12.38;;;10.35;;
57443;SDS011;43289;52.962;6.196;2023-06-19T09:41:42;13.68;;;11.27;;
57443;SDS011;43289;52.962;6.196;2023-06-19T09:44:11;13.35;;;10.18;;
57443;SDS011;43289;52.962;6.196;2023-06-19T09:46:38;14.63;;;12.40;;
57443;SDS011;43289;52.962;6.196;2023-06-19T09:49:09;13.18;;;11.35;;
57443;SDS011;43289;52.962;6.196;2023-06-19T09:51:37;15.55;;;12.75;;
57443;SDS011;43289;52.962;6.196;2023-06-19T09:54:06;13.63;;;12.32;;
57443;SDS011;43289;52.962;6.196;2023-06-19T09:56:32;13.30;;;11.68;;
57443;SDS011;43289;52.962;6.196;2023-06-19T09:58:59;14.15;;;12.25;;
57443;SDS011;43289;52.962;6.196;2023-06-19T10:01:29;16.40;;;12.48;;
57443;SDS011;43289;52.962;6.196;2023-06-19T10:04:04;12.45;;;11.10;;
57443;SDS011;43289;52.962;6.196;2023-06-19T10:06:30;13.60;;;9.32;;
57443;SDS011;43289;52.962;6.196;2023-06-19T10:08:56;13.75;;;10.60;;
57443;SDS011;43289;52.962;6.196;2023-06-19T10:11:44;13.30;;;9.63;;
57443;SDS011;43289;52.962;6.196;2023-06-19T10:14:16;14.43;;;8.80;;
57443;SDS011;43289;52.962;6.196;2023-06-19T10:16:43;13.93;;;9.77;;
57443;SDS011;43289;52.962;6.196;2023-06-19T10:19:16;15.00;;;9.48;;
57443;SDS011;43289;52.962;6.196;2023-06-19T10:21:43;12.77;;;9.05;;
57443;SDS011;43289;52.962;6.196;2023-06-19T10:24:13;10.82;;;9.23;;
57443;SDS011;43289;52.962;6.196;2023-06-19T10:26:39;11.15;;;9.45;;
57443;SDS011;43289;52.962;6.196;2023-06-19T10:29:17;12.57;;;9.27;;
57443;SDS011;43289;52.962;6.196;2023-06-19T10:31:43;13.35;;;10.20;;
57443;SDS011;43289;52.962;6.196;2023-06-19T10:34:10;12.43;;;10.45;;
57443;SDS011;43289;52.962;6.196;2023-06-19T10:36:37;15.57;;;12.30;;
57443;SDS011;43289;52.962;6.196;2023-06-19T10:39:02;13.82;;;10.25;;
57443;SDS011;43289;52.962;6.196;2023-06-19T10:41:29;13.18;;;11.38;;
57443;SDS011;43289;52.962;6.196;2023-06-19T10:43:57;16.98;;;11.60;;
57443;SDS011;43289;52.962;6.196;2023-06-19T10:46:24;13.45;;;11.32;;
57443;SDS011;43289;52.962;6.196;2023-06-19T10:48:55;15.02;;;12.48;;
57443;SDS011;43289;52.962;6.196;2023-06-19T10:51:26;13.73;;;12.15;;
57443;SDS011;43289;52.962;6.196;2023-06-19T10:53:53;13.93;;;11.73;;
57443;SDS011;43289;52.962;6.196;2023-06-19T10:56:20;17.40;;;11.75;;
57443;SDS011;43289;52.962;6.196;2023-06-19T10:58:47;14.68;;;10.75;;
57443;SDS011;43289;52.962;6.196;2023-06-19T11:01:13;14.10;;;11.88;;
57443;SDS011;43289;52.962;6.196;2023-06-19T11:03:39;14.88;;;12.07;;
57443;SDS011;43289;52.962;6.196;2023-06-19T11:06:05;16.02;;;12.43;;
57443;SDS011;43289;52.962;6.196;2023-06-19T11:08:31;15.30;;;13.40;;
57443;SDS011;43289;52.962;6.196;2023-06-19T11:10:57;16.88;;;13.65;;
57443;SDS011;43289;52.962;6.196;2023-06-19T11:13:23;15.68;;;13.18;;
57443;SDS011;43289;52.962;6.196;2023-06-19T11:15:49;15.38;;;12.85;;
57443;SDS011;43289;52.962;6.196;2023-06-19T11:18:16;15.68;;;13.68;;
57443;SDS011;43289;52.962;6.196;2023-06-19T11:20:43;22.15;;;15.65;;
57443;SDS011;43289;52.962;6.196;2023-06-19T11:23:09;16.45;;;13.82;;
57443;SDS011;43289;52.962;6.196;2023-06-19T11:25:35;17.75;;;15.52;;
57443;SDS011;43289;52.962;6.196;2023-06-19T11:28:02;16.88;;;13.57;;
57443;SDS011;43289;52.962;6.196;2023-06-19T11:30:32;19.30;;;16.45;;
57443;SDS011;43289;52.962;6.196;2023-06-19T11:32:58;18.88;;;16.15;;
57443;SDS011;43289;52.962;6.196;2023-06-19T11:35:25;16.33;;;12.43;;
57443;SDS011;43289;52.962;6.196;2023-06-19T11:37:59;12.85;;;10.85;;
57443;SDS011;43289;52.962;6.196;2023-06-19T11:40:24;14.95;;;11.27;;
57443;SDS011;43289;52.962;6.196;2023-06-19T11:42:53;15.38;;;11.20;;
57443;SDS011;43289;52.962;6.196;2023-06-19T11:45:19;14.00;;;11.60;;
57443;SDS011;43289;52.962;6.196;2023-06-19T11:47:45;12.52;;;10.75;;
57443;SDS011;43289;52.962;6.196;2023-06-19T11:50:12;12.70;;;10.02;;
57443;SDS011;43289;52.962;6.196;2023-06-19T11:52:39;18.42;;;10.90;;
57443;SDS011;43289;52.962;6.196;2023-06-19T11:55:05;12.57;;;11.27;;
57443;SDS011;43289;52.962;6.196;2023-06-19T11:57:31;13.82;;;12.45;;
57443;SDS011;43289;52.962;6.196;2023-06-19T11:59:58;14.20;;;11.45;;
57443;SDS011;43289;52.962;6.196;2023-06-19T12:02:23;13.60;;;12.20;;
57443;SDS011;43289;52.962;6.196;2023-06-19T12:04:49;12.95;;;10.82;;
57443;SDS011;43289;52.962;6.196;2023-06-19T12:10:34;14.85;;;11.32;;
57443;SDS011;43289;52.962;6.196;2023-06-19T12:13:00;18.10;;;13.55;;
57443;SDS011;43289;52.962;6.196;2023-06-19T12:15:25;16.38;;;12.60;;
57443;SDS011;43289;52.962;6.196;2023-06-19T12:17:51;15.75;;;13.18;;
57443;SDS011;43289;52.962;6.196;2023-06-19T12:20:18;26.00;;;14.65;;
57443;SDS011;43289;52.962;6.196;2023-06-19T12:22:44;16.90;;;14.43;;
57443;SDS011;43289;52.962;6.196;2023-06-19T12:25:09;14.05;;;11.85;;
57443;SDS011;43289;52.962;6.196;2023-06-19T12:27:35;12.82;;;11.15;;
57443;SDS011;43289;52.962;6.196;2023-06-19T12:30:02;10.32;;;8.88;;
57443;SDS011;43289;52.962;6.196;2023-06-19T12:32:28;12.15;;;10.82;;
57443;SDS011;43289;52.962;6.196;2023-06-19T12:34:54;13.07;;;10.73;;
57443;SDS011;43289;52.962;6.196;2023-06-19T12:37:22;12.43;;;10.32;;
57443;SDS011;43289;52.962;6.196;2023-06-19T12:39:52;12.90;;;10.77;;
57443;SDS011;43289;52.962;6.196;2023-06-19T12:42:17;13.30;;;11.13;;
57443;SDS011;43289;52.962;6.196;2023-06-19T12:44:43;11.73;;;9.75;;
57443;SDS011;43289;52.962;6.196;2023-06-19T12:47:10;13.60;;;11.00;;
57443;SDS011;43289;52.962;6.196;2023-06-19T12:49:36;13.70;;;11.00;;
57443;SDS011;43289;52.962;6.196;2023-06-19T12:52:01;12.52;;;11.00;;
57443;SDS011;43289;52.962;6.196;2023-06-19T12:54:27;10.85;;;9.50;;
57443;SDS011;43289;52.962;6.196;2023-06-19T12:56:53;13.00;;;11.23;;
57443;SDS011;43289;52.962;6.196;2023-06-19T12:59:19;11.98;;;10.35;;
57443;SDS011;43289;52.962;6.196;2023-06-19T13:01:44;12.68;;;9.48;;
57443;SDS011;43289;52.962;6.196;2023-06-19T13:04:11;11.52;;;9.40;;
57443;SDS011;43289;52.962;6.196;2023-06-19T13:06:37;11.80;;;10.55;;
57443;SDS011;43289;52.962;6.196;2023-06-19T13:09:04;14.13;;;10.13;;
57443;SDS011;43289;52.962;6.196;2023-06-19T13:11:30;11.80;;;10.15;;
57443;SDS011;43289;52.962;6.196;2023-06-19T13:13:56;12.77;;;9.65;;
57443;SDS011;43289;52.962;6.196;2023-06-19T13:16:22;10.55;;;8.85;;
57443;SDS011;43289;52.962;6.196;2023-06-19T13:18:50;10.30;;;8.80;;
57443;SDS011;43289;52.962;6.196;2023-06-19T13:21:16;12.07;;;9.35;;
57443;SDS011;43289;52.962;6.196;2023-06-19T13:23:42;13.02;;;9.73;;
57443;SDS011;43289;52.962;6.196;2023-06-19T13:26:07;12.75;;;9.07;;
57443;SDS011;43289;52.962;6.196;2023-06-19T13:28:33;10.95;;;8.02;;
57443;SDS011;43289;52.962;6.196;2023-06-19T13:30:59;10.52;;;7.63;;
57443;SDS011;43289;52.962;6.196;2023-06-19T13:33:25;10.85;;;8.32;;
57443;SDS011;43289;52.962;6.196;2023-06-19T13:35:50;8.82;;;7.72;;
57443;SDS011;43289;52.962;6.196;2023-06-19T13:38:16;11.90;;;8.10;;
57443;SDS011;43289;52.962;6.196;2023-06-19T13:40:42;10.18;;;8.20;;
57443;SDS011;43289;52.962;6.196;2023-06-19T13:43:08;10.10;;;8.52;;
57443;SDS011;43289;52.962;6.196;2023-06-19T13:45:34;9.10;;;7.32;;
57443;SDS011;43289;52.962;6.196;2023-06-19T13:48:00;9.45;;;7.80;;
57443;SDS011;43289;52.962;6.196;2023-06-19T13:50:28;9.98;;;6.32;;
57443;SDS011;43289;52.962;6.196;2023-06-19T13:52:54;9.05;;;7.18;;
57443;SDS011;43289;52.962;6.196;2023-06-19T13:55:19;9.50;;;6.30;;
57443;SDS011;43289;52.962;6.196;2023-06-19T13:57:45;14.73;;;8.80;;
57443;SDS011;43289;52.962;6.196;2023-06-19T14:00:11;9.15;;;6.82;;
57443;SDS011;43289;52.962;6.196;2023-06-19T14:02:37;7.05;;;5.18;;
57443;SDS011;43289;52.962;6.196;2023-06-19T14:05:04;7.78;;;5.72;;
57443;SDS011;43289;52.962;6.196;2023-06-19T14:07:31;7.30;;;6.07;;
57443;SDS011;43289;52.962;6.196;2023-06-19T14:09:57;7.60;;;5.60;;
57443;SDS011;43289;52.962;6.196;2023-06-19T14:12:22;6.28;;;5.30;;
57443;SDS011;43289;52.962;6.196;2023-06-19T14:14:48;9.32;;;5.80;;
57443;SDS011;43289;52.962;6.196;2023-06-19T14:17:14;6.32;;;4.45;;
57443;SDS011;43289;52.962;6.196;2023-06-19T14:19:40;5.95;;;4.55;;
57443;SDS011;43289;52.962;6.196;2023-06-19T14:22:05;9.85;;;5.60;;
57443;SDS011;43289;52.962;6.196;2023-06-19T14:24:31;7.32;;;5.70;;
57443;SDS011;43289;52.962;6.196;2023-06-19T14:26:56;8.20;;;4.90;;
57443;SDS011;43289;52.962;6.196;2023-06-19T14:29:22;8.05;;;5.07;;
57443;SDS011;43289;52.962;6.196;2023-06-19T14:31:47;9.98;;;5.43;;
57443;SDS011;43289;52.962;6.196;2023-06-19T14:34:16;5.57;;;4.30;;
57443;SDS011;43289;52.962;6.196;2023-06-19T14:36:42;6.07;;;4.40;;
57443;SDS011;43289;52.962;6.196;2023-06-19T14:39:07;6.55;;;5.03;;
57443;SDS011;43289;52.962;6.196;2023-06-19T14:41:33;8.20;;;4.57;;
57443;SDS011;43289;52.962;6.196;2023-06-19T14:43:59;7.20;;;5.85;;